sensor_id;sensor_type;location;lat;lon;timestamp;pressure;altitude;pressure_sealevel;temperature;humidity
78841;BME280;68379;47.190;27.558;2023-06-22T00:00:15;100130.19;;;17.96;71.59
78841;BME280;68379;47.190;27.558;2023-06-22T00:03:04;100124.92;;;17.95;72.02
78841;BME280;68379;47.190;27.558;2023-06-22T00:05:33;100123.25;;;17.93;72.78
78841;BME280;68379;47.190;27.558;2023-06-22T00:08:04;100119.14;;;17.90;72.26
78841;BME280;68379;47.190;27.558;2023-06-22T00:10:33;100117.92;;;17.90;72.11
78841;BME280;68379;47.190;27.558;2023-06-22T00:13:03;100114.52;;;17.90;72.15
78841;BME280;68379;47.190;27.558;2023-06-22T00:15:32;100114.65;;;17.91;72.31
78841;BME280;68379;47.190;27.558;2023-06-22T00:18:01;100110.67;;;17.91;72.09
78841;BME280;68379;47.190;27.558;2023-06-22T00:20:30;100110.03;;;17.90;72.98
78841;BME280;68379;47.190;27.558;2023-06-22T00:23:01;100111.16;;;17.87;73.25
78841;BME280;68379;47.190;27.558;2023-06-22T00:25:30;100113.58;;;17.82;72.68
78841;BME280;68379;47.190;27.558;2023-06-22T00:27:59;100115.27;;;17.78;72.74
78841;BME280;68379;47.190;27.558;2023-06-22T00:30:27;100113.92;;;17.71;73.41
78841;BME280;68379;47.190;27.558;2023-06-22T00:32:56;100116.80;;;17.65;73.17
78841;BME280;68379;47.190;27.558;2023-06-22T00:35:25;100116.90;;;17.61;73.11
78841;BME280;68379;47.190;27.558;2023-06-22T00:37:58;100122.60;;;17.58;73.26
78841;BME280;68379;47.190;27.558;2023-06-22T00:40:28;100127.65;;;17.57;73.20
78841;BME280;68379;47.190;27.558;2023-06-22T00:42:58;100128.61;;;17.57;73.34
78841;BME280;68379;47.190;27.558;2023-06-22T00:45:27;100128.61;;;17.57;73.23
78841;BME280;68379;47.190;27.558;2023-06-22T00:47:57;100136.47;;;17.54;73.75
78841;BME280;68379;47.190;27.558;2023-06-22T00:50:27;100134.55;;;17.50;74.19
78841;BME280;68379;47.190;27.558;2023-06-22T00:53:03;100133.13;;;17.44;74.90
78841;BME280;68379;47.190;27.558;2023-06-22T00:55:37;100131.84;;;17.39;75.21
78841;BME280;68379;47.190;27.558;2023-06-22T00:58:07;100135.79;;;17.36;74.98
78841;BME280;68379;47.190;27.558;2023-06-22T01:00:38;100138.20;;;17.35;74.31
78841;BME280;68379;47.190;27.558;2023-06-22T01:03:08;100139.27;;;17.35;74.25
78841;BME280;68379;47.190;27.558;2023-06-22T01:05:38;100137.48;;;17.35;74.26
78841;BME280;68379;47.190;27.558;2023-06-22T01:08:19;100141.78;;;17.34;74.39
78841;BME280;68379;47.190;27.558;2023-06-22T01:10:55;100143.69;;;17.33;74.26
78841;BME280;68379;47.190;27.558;2023-06-22T01:13:32;100138.51;;;17.30;74.43
78841;BME280;68379;47.190;27.558;2023-06-22T01:16:05;100136.77;;;17.26;74.38
78841;BME280;68379;47.190;27.558;2023-06-22T01:18:37;100136.84;;;17.22;74.54
78841;BME280;68379;47.190;27.558;2023-06-22T01:21:08;100142.90;;;17.19;75.30
78841;BME280;68379;47.190;27.558;2023-06-22T01:24:00;100142.39;;;17.16;75.68
78841;BME280;68379;47.190;27.558;2023-06-22T01:26:38;100144.59;;;17.15;75.20
78841;BME280;68379;47.190;27.558;2023-06-22T01:29:09;100142.48;;;17.15;75.04
78841;BME280;68379;47.190;27.558;2023-06-22T01:31:42;100145.29;;;17.16;75.16
78841;BME280;68379;47.190;27.558;2023-06-22T01:34:13;100143.34;;;17.15;75.11
78841;BME280;68379;47.190;27.558;2023-06-22T01:36:43;100143.52;;;17.15;75.10
78841;BME280;68379;47.190;27.558;2023-06-22T01:39:13;100139.63;;;17.15;75.19
78841;BME280;68379;47.190;27.558;2023-06-22T01:41:43;100141.40;;;17.15;75.12
78841;BME280;68379;47.190;27.558;2023-06-22T01:44:13;100139.10;;;17.15;75.20
78841;BME280;68379;47.190;27.558;2023-06-22T01:46:42;100142.81;;;17.15;75.37
78841;BME280;68379;47.190;27.558;2023-06-22T01:49:12;100136.59;;;17.15;75.35
78841;BME280;68379;47.190;27.558;2023-06-22T01:51:41;100137.46;;;17.15;75.34
78841;BME280;68379;47.190;27.558;2023-06-22T01:54:10;100139.94;;;17.16;75.42
78841;BME280;68379;47.190;27.558;2023-06-22T01:56:39;100137.52;;;17.17;75.29
78841;BME280;68379;47.190;27.558;2023-06-22T01:59:14;100140.69;;;17.18;75.52
78841;BME280;68379;47.190;27.558;2023-06-22T02:01:52;100145.48;;;17.13;76.15
78841;BME280;68379;47.190;27.558;2023-06-22T02:04:27;100146.86;;;17.07;76.09
78841;BME280;68379;47.190;27.558;2023-06-22T02:07:05;100146.72;;;17.07;75.78
78841;BME280;68379;47.190;27.558;2023-06-22T02:09:39;100143.02;;;17.09;75.87
78841;BME280;68379;47.190;27.558;2023-06-22T02:12:12;100140.61;;;17.10;75.74
78841;BME280;68379;47.190;27.558;2023-06-22T02:14:42;100143.17;;;17.12;75.81
78841;BME280;68379;47.190;27.558;2023-06-22T02:17:11;100144.85;;;17.14;75.77
78841;BME280;68379;47.190;27.558;2023-06-22T02:19:42;100147.08;;;17.15;75.75
78841;BME280;68379;47.190;27.558;2023-06-22T02:22:11;100150.01;;;17.17;75.75
78841;BME280;68379;47.190;27.558;2023-06-22T02:24:41;100156.64;;;17.20;75.73
78841;BME280;68379;47.190;27.558;2023-06-22T02:27:10;100162.54;;;17.19;76.20
78841;BME280;68379;47.190;27.558;2023-06-22T02:29:39;100164.70;;;17.16;76.30
78841;BME280;68379;47.190;27.558;2023-06-22T02:32:09;100168.20;;;17.15;76.19
78841;BME280;68379;47.190;27.558;2023-06-22T02:34:38;100165.86;;;17.12;76.71
78841;BME280;68379;47.190;27.558;2023-06-22T02:37:07;100161.32;;;17.10;76.66
78841;BME280;68379;47.190;27.558;2023-06-22T02:39:36;100157.20;;;17.11;76.29
78841;BME280;68379;47.190;27.558;2023-06-22T02:42:06;100148.48;;;17.16;76.30
78841;BME280;68379;47.190;27.558;2023-06-22T02:44:35;100145.92;;;17.20;76.54
78841;BME280;68379;47.190;27.558;2023-06-22T02:47:04;100145.83;;;17.19;77.76
78841;BME280;68379;47.190;27.558;2023-06-22T02:49:33;100147.38;;;17.14;77.95
78841;BME280;68379;47.190;27.558;2023-06-22T02:52:03;100148.77;;;17.14;77.15
78841;BME280;68379;47.190;27.558;2023-06-22T02:54:32;100147.76;;;17.19;77.13
78841;BME280;68379;47.190;27.558;2023-06-22T02:57:01;100146.45;;;17.20;77.69
78841;BME280;68379;47.190;27.558;2023-06-22T02:59:31;100144.10;;;17.20;77.96
78841;BME280;68379;47.190;27.558;2023-06-22T03:02:00;100136.90;;;17.21;77.54
78841;BME280;68379;47.190;27.558;2023-06-22T03:04:29;100131.42;;;17.23;77.37
78841;BME280;68379;47.190;27.558;2023-06-22T03:06:59;100128.47;;;17.25;77.26
78841;BME280;68379;47.190;27.558;2023-06-22T03:09:29;100123.73;;;17.26;77.10
78841;BME280;68379;47.190;27.558;2023-06-22T03:11:58;100124.41;;;17.32;76.68
78841;BME280;68379;47.190;27.558;2023-06-22T03:14:27;100119.40;;;17.38;76.45
78841;BME280;68379;47.190;27.558;2023-06-22T03:16:56;100122.73;;;17.42;76.97
78841;BME280;68379;47.190;27.558;2023-06-22T03:19:31;100122.90;;;17.42;77.55
78841;BME280;68379;47.190;27.558;2023-06-22T03:22:01;100128.45;;;17.42;76.96
78841;BME280;68379;47.190;27.558;2023-06-22T03:24:29;100131.86;;;17.48;76.81
78841;BME280;68379;47.190;27.558;2023-06-22T03:26:58;100136.86;;;17.54;76.54
78841;BME280;68379;47.190;27.558;2023-06-22T03:29:28;100138.02;;;17.58;76.51
78841;BME280;68379;47.190;27.558;2023-06-22T03:31:57;100137.41;;;17.61;76.50
78841;BME280;68379;47.190;27.558;2023-06-22T03:34:26;100141.02;;;17.66;76.36
78841;BME280;68379;47.190;27.558;2023-06-22T03:36:55;100141.87;;;17.73;76.24
78841;BME280;68379;47.190;27.558;2023-06-22T03:39:25;100143.25;;;17.79;76.16
78841;BME280;68379;47.190;27.558;2023-06-22T03:41:54;100147.20;;;17.84;75.97
78841;BME280;68379;47.190;27.558;2023-06-22T03:44:23;100149.94;;;17.90;75.78
78841;BME280;68379;47.190;27.558;2023-06-22T03:46:52;100148.67;;;17.95;75.62
78841;BME280;68379;47.190;27.558;2023-06-22T03:49:21;100149.31;;;18.01;75.47
78841;BME280;68379;47.190;27.558;2023-06-22T03:51:50;100152.58;;;18.09;75.41
78841;BME280;68379;47.190;27.558;2023-06-22T03:54:19;100155.20;;;18.15;75.38
78841;BME280;68379;47.190;27.558;2023-06-22T03:56:48;100162.88;;;18.24;75.29
78841;BME280;68379;47.190;27.558;2023-06-22T03:59:17;100160.81;;;18.34;75.26
78841;BME280;68379;47.190;27.558;2023-06-22T04:01:50;100162.46;;;18.44;75.20
78841;BME280;68379;47.190;27.558;2023-06-22T04:04:19;100165.83;;;18.55;75.03
78841;BME280;68379;47.190;27.558;2023-06-22T04:06:48;100165.80;;;18.65;74.83
78841;BME280;68379;47.190;27.558;2023-06-22T04:09:17;100172.29;;;18.81;74.62
78841;BME280;68379;47.190;27.558;2023-06-22T04:11:46;100173.45;;;18.96;74.36
78841;BME280;68379;47.190;27.558;2023-06-22T04:14:15;100171.29;;;19.12;74.14
78841;BME280;68379;47.190;27.558;2023-06-22T04:16:44;100170.75;;;19.27;73.85
78841;BME280;68379;47.190;27.558;2023-06-22T04:19:13;100171.83;;;19.40;73.54
78841;BME280;68379;47.190;27.558;2023-06-22T04:21:45;100167.90;;;19.52;73.28
78841;BME280;68379;47.190;27.558;2023-06-22T04:24:16;100166.59;;;19.65;73.17
78841;BME280;68379;47.190;27.558;2023-06-22T04:26:45;100171.82;;;19.78;72.90
78841;BME280;68379;47.190;27.558;2023-06-22T04:29:15;100181.98;;;19.91;72.69
78841;BME280;68379;47.190;27.558;2023-06-22T04:31:44;100190.77;;;20.03;72.37
78841;BME280;68379;47.190;27.558;2023-06-22T04:34:13;100193.81;;;20.11;72.24
78841;BME280;68379;47.190;27.558;2023-06-22T04:36:45;100192.37;;;20.18;72.05
78841;BME280;68379;47.190;27.558;2023-06-22T04:39:14;100182.40;;;20.24;71.84
78841;BME280;68379;47.190;27.558;2023-06-22T04:41:43;100184.11;;;20.32;71.83
78841;BME280;68379;47.190;27.558;2023-06-22T04:44:13;100186.08;;;20.43;71.58
78841;BME280;68379;47.190;27.558;2023-06-22T04:46:53;100185.79;;;20.53;71.40
78841;BME280;68379;47.190;27.558;2023-06-22T04:49:22;100182.31;;;20.62;71.20
78841;BME280;68379;47.190;27.558;2023-06-22T04:51:51;100177.77;;;20.74;71.03
78841;BME280;68379;47.190;27.558;2023-06-22T04:54:20;100177.48;;;20.87;70.69
78841;BME280;68379;47.190;27.558;2023-06-22T04:56:49;100178.83;;;20.98;70.32
78841;BME280;68379;47.190;27.558;2023-06-22T04:59:26;100184.58;;;21.07;70.06
78841;BME280;68379;47.190;27.558;2023-06-22T05:01:56;100184.77;;;21.16;69.49
78841;BME280;68379;47.190;27.558;2023-06-22T05:04:25;100186.38;;;21.23;68.96
78841;BME280;68379;47.190;27.558;2023-06-22T05:06:55;100185.52;;;21.34;69.26
78841;BME280;68379;47.190;27.558;2023-06-22T05:09:24;100184.73;;;21.45;68.75
78841;BME280;68379;47.190;27.558;2023-06-22T05:11:53;100185.36;;;21.55;68.32
78841;BME280;68379;47.190;27.558;2023-06-22T05:14:22;100185.23;;;21.61;67.99
78841;BME280;68379;47.190;27.558;2023-06-22T05:16:52;100180.42;;;21.67;68.06
78841;BME280;68379;47.190;27.558;2023-06-22T05:19:21;100181.94;;;21.73;68.08
78841;BME280;68379;47.190;27.558;2023-06-22T05:21:50;100175.83;;;21.79;68.25
78841;BME280;68379;47.190;27.558;2023-06-22T05:24:19;100171.21;;;21.88;68.12
78841;BME280;68379;47.190;27.558;2023-06-22T05:26:48;100179.44;;;22.02;68.27
78841;BME280;68379;47.190;27.558;2023-06-22T05:29:17;100181.66;;;22.12;67.53
78841;BME280;68379;47.190;27.558;2023-06-22T05:31:46;100188.41;;;22.22;67.29
78841;BME280;68379;47.190;27.558;2023-06-22T05:34:15;100191.98;;;22.29;67.08
78841;BME280;68379;47.190;27.558;2023-06-22T05:36:44;100195.02;;;22.33;67.00
78841;BME280;68379;47.190;27.558;2023-06-22T05:39:14;100195.94;;;22.35;66.46
78841;BME280;68379;47.190;27.558;2023-06-22T05:41:46;100196.63;;;22.38;66.42
78841;BME280;68379;47.190;27.558;2023-06-22T05:44:15;100199.25;;;22.43;66.62
78841;BME280;68379;47.190;27.558;2023-06-22T05:46:44;100203.24;;;22.47;66.40
78841;BME280;68379;47.190;27.558;2023-06-22T05:49:15;100204.27;;;22.56;65.98
78841;BME280;68379;47.190;27.558;2023-06-22T05:51:44;100205.35;;;22.67;65.87
78841;BME280;68379;47.190;27.558;2023-06-22T05:54:13;100206.55;;;22.78;65.53
78841;BME280;68379;47.190;27.558;2023-06-22T05:56:43;100210.22;;;22.89;65.10
78841;BME280;68379;47.190;27.558;2023-06-22T05:59:13;100209.91;;;22.96;64.87
78841;BME280;68379;47.190;27.558;2023-06-22T06:01:42;100205.76;;;23.09;65.02
78841;BME280;68379;47.190;27.558;2023-06-22T06:04:11;100200.06;;;23.23;64.31
78841;BME280;68379;47.190;27.558;2023-06-22T06:06:40;100195.28;;;23.36;64.13
78841;BME280;68379;47.190;27.558;2023-06-22T06:09:09;100193.80;;;23.47;64.62
78841;BME280;68379;47.190;27.558;2023-06-22T06:11:39;100191.25;;;23.56;63.69
78841;BME280;68379;47.190;27.558;2023-06-22T06:14:08;100194.69;;;23.70;63.85
78841;BME280;68379;47.190;27.558;2023-06-22T06:16:37;100192.65;;;23.85;63.77
78841;BME280;68379;47.190;27.558;2023-06-22T06:19:06;100191.77;;;24.01;63.35
78841;BME280;68379;47.190;27.558;2023-06-22T06:21:35;100192.13;;;24.15;62.88
78841;BME280;68379;47.190;27.558;2023-06-22T06:24:05;100191.77;;;24.25;62.09
78841;BME280;68379;47.190;27.558;2023-06-22T06:26:35;100197.86;;;24.31;61.42
78841;BME280;68379;47.190;27.558;2023-06-22T06:29:04;100199.81;;;24.39;62.21
78841;BME280;68379;47.190;27.558;2023-06-22T06:31:33;100199.05;;;24.48;62.22
78841;BME280;68379;47.190;27.558;2023-06-22T06:34:02;100198.78;;;24.59;61.64
78841;BME280;68379;47.190;27.558;2023-06-22T06:36:31;100203.12;;;24.67;60.51
78841;BME280;68379;47.190;27.558;2023-06-22T06:39:00;100201.49;;;24.73;61.08
78841;BME280;68379;47.190;27.558;2023-06-22T06:41:31;100202.45;;;24.82;60.63
78841;BME280;68379;47.190;27.558;2023-06-22T06:44:01;100196.84;;;24.90;59.67
78841;BME280;68379;47.190;27.558;2023-06-22T06:46:30;100196.96;;;25.00;59.61
78841;BME280;68379;47.190;27.558;2023-06-22T06:48:59;100197.45;;;25.12;58.58
78841;BME280;68379;47.190;27.558;2023-06-22T06:51:28;100199.20;;;25.22;59.08
78841;BME280;68379;47.190;27.558;2023-06-22T06:53:58;100197.98;;;25.31;58.81
78841;BME280;68379;47.190;27.558;2023-06-22T06:56:27;100198.66;;;25.41;57.84
78841;BME280;68379;47.190;27.558;2023-06-22T06:58:56;100195.44;;;25.52;58.53
78841;BME280;68379;47.190;27.558;2023-06-22T07:01:26;100201.45;;;25.63;58.27
78841;BME280;68379;47.190;27.558;2023-06-22T07:03:56;100199.42;;;25.76;57.24
78841;BME280;68379;47.190;27.558;2023-06-22T07:06:25;100205.25;;;25.88;56.07
78841;BME280;68379;47.190;27.558;2023-06-22T07:08:57;100206.48;;;25.95;54.95
78841;BME280;68379;47.190;27.558;2023-06-22T07:11:26;100203.54;;;25.99;56.02
78841;BME280;68379;47.190;27.558;2023-06-22T07:13:55;100201.81;;;26.04;54.13
78841;BME280;68379;47.190;27.558;2023-06-22T07:16:24;100197.44;;;26.17;54.70
78841;BME280;68379;47.190;27.558;2023-06-22T07:18:57;100196.49;;;26.40;55.43
78841;BME280;68379;47.190;27.558;2023-06-22T07:21:26;100196.83;;;26.60;54.09
78841;BME280;68379;47.190;27.558;2023-06-22T07:23:55;100199.42;;;26.75;53.41
78841;BME280;68379;47.190;27.558;2023-06-22T07:26:25;100202.80;;;26.88;53.23
78841;BME280;68379;47.190;27.558;2023-06-22T07:28:54;100201.77;;;27.00;52.35
78841;BME280;68379;47.190;27.558;2023-06-22T07:31:24;100199.23;;;27.08;53.08
78841;BME280;68379;47.190;27.558;2023-06-22T07:33:54;100200.16;;;27.13;52.66
78841;BME280;68379;47.190;27.558;2023-06-22T07:36:23;100203.45;;;27.19;52.70
78841;BME280;68379;47.190;27.558;2023-06-22T07:38:52;100197.30;;;27.28;50.29
78841;BME280;68379;47.190;27.558;2023-06-22T07:41:21;100193.48;;;27.16;48.97
78841;BME280;68379;47.190;27.558;2023-06-22T07:43:51;100192.13;;;27.20;50.33
78841;BME280;68379;47.190;27.558;2023-06-22T07:46:20;100193.27;;;27.35;51.02
78841;BME280;68379;47.190;27.558;2023-06-22T07:48:49;100195.39;;;27.50;48.95
78841;BME280;68379;47.190;27.558;2023-06-22T07:51:18;100194.44;;;27.67;49.71
78841;BME280;68379;47.190;27.558;2023-06-22T07:53:47;100194.36;;;27.89;49.73
78841;BME280;68379;47.190;27.558;2023-06-22T07:56:17;100191.74;;;28.08;47.88
78841;BME280;68379;47.190;27.558;2023-06-22T07:58:47;100190.08;;;28.20;47.41
78841;BME280;68379;47.190;27.558;2023-06-22T08:01:16;100192.70;;;28.26;45.78
78841;BME280;68379;47.190;27.558;2023-06-22T08:03:45;100195.41;;;28.28;45.35
78841;BME280;68379;47.190;27.558;2023-06-22T08:06:14;100195.02;;;28.39;45.60
78841;BME280;68379;47.190;27.558;2023-06-22T08:08:44;100198.42;;;28.46;44.19
78841;BME280;68379;47.190;27.558;2023-06-22T08:11:16;100194.92;;;28.51;43.98
78841;BME280;68379;47.190;27.558;2023-06-22T08:13:45;100194.41;;;28.61;44.41
78841;BME280;68379;47.190;27.558;2023-06-22T08:16:13;100192.56;;;28.68;42.89
78841;BME280;68379;47.190;27.558;2023-06-22T08:18:43;100191.04;;;28.63;43.20
78841;BME280;68379;47.190;27.558;2023-06-22T08:21:12;100194.48;;;28.60;43.01
78841;BME280;68379;47.190;27.558;2023-06-22T08:23:42;100194.63;;;28.67;43.76
78841;BME280;68379;47.190;27.558;2023-06-22T08:26:12;100195.14;;;28.84;43.59
78841;BME280;68379;47.190;27.558;2023-06-22T08:28:41;100193.88;;;28.94;42.16
78841;BME280;68379;47.190;27.558;2023-06-22T08:31:11;100194.63;;;29.02;42.85
78841;BME280;68379;47.190;27.558;2023-06-22T08:33:40;100191.29;;;29.03;41.97
78841;BME280;68379;47.190;27.558;2023-06-22T08:36:11;100186.95;;;28.84;41.23
78841;BME280;68379;47.190;27.558;2023-06-22T08:38:41;100187.54;;;28.74;41.61
78841;BME280;68379;47.190;27.558;2023-06-22T08:41:10;100182.08;;;28.81;41.68
78841;BME280;68379;47.190;27.558;2023-06-22T08:43:39;100183.02;;;28.99;41.76
78841;BME280;68379;47.190;27.558;2023-06-22T08:46:08;100181.71;;;29.18;40.02
78841;BME280;68379;47.190;27.558;2023-06-22T08:48:37;100184.30;;;29.13;39.48
78841;BME280;68379;47.190;27.558;2023-06-22T08:51:06;100180.65;;;29.21;41.29
78841;BME280;68379;47.190;27.558;2023-06-22T08:53:35;100181.02;;;29.36;40.88
78841;BME280;68379;47.190;27.558;2023-06-22T08:56:05;100182.98;;;29.45;40.33
78841;BME280;68379;47.190;27.558;2023-06-22T08:58:34;100184.30;;;29.52;39.10
78841;BME280;68379;47.190;27.558;2023-06-22T09:01:03;100185.28;;;29.52;39.11
78841;BME280;68379;47.190;27.558;2023-06-22T09:03:32;100190.33;;;29.58;39.72
78841;BME280;68379;47.190;27.558;2023-06-22T09:06:04;100191.85;;;29.78;39.08
78841;BME280;68379;47.190;27.558;2023-06-22T09:08:34;100191.17;;;29.92;39.25
78841;BME280;68379;47.190;27.558;2023-06-22T09:11:03;100191.59;;;30.06;39.26
78841;BME280;68379;47.190;27.558;2023-06-22T09:13:32;100189.94;;;29.95;38.67
78841;BME280;68379;47.190;27.558;2023-06-22T09:16:03;100193.84;;;29.57;38.73
78841;BME280;68379;47.190;27.558;2023-06-22T09:18:33;100191.04;;;29.34;39.85
78841;BME280;68379;47.190;27.558;2023-06-22T09:21:02;100191.96;;;29.07;39.79
78841;BME280;68379;47.190;27.558;2023-06-22T09:23:32;100188.32;;;28.95;40.17
78841;BME280;68379;47.190;27.558;2023-06-22T09:26:01;100188.29;;;29.05;40.42
78841;BME280;68379;47.190;27.558;2023-06-22T09:28:32;100190.08;;;29.15;39.98
78841;BME280;68379;47.190;27.558;2023-06-22T09:31:01;100185.39;;;29.20;39.87
78841;BME280;68379;47.190;27.558;2023-06-22T09:33:30;100184.44;;;29.19;39.32
78841;BME280;68379;47.190;27.558;2023-06-22T09:35:59;100180.23;;;29.28;40.03
78841;BME280;68379;47.190;27.558;2023-06-22T09:38:29;100179.98;;;29.53;39.89
78841;BME280;68379;47.190;27.558;2023-06-22T09:40:58;100181.52;;;29.90;39.92
78841;BME280;68379;47.190;27.558;2023-06-22T09:43:28;100182.53;;;30.24;39.01
78841;BME280;68379;47.190;27.558;2023-06-22T09:45:57;100180.08;;;30.54;38.16
78841;BME280;68379;47.190;27.558;2023-06-22T09:48:27;100178.46;;;30.60;37.00
78841;BME280;68379;47.190;27.558;2023-06-22T09:50:57;100179.08;;;30.64;37.13
78841;BME280;68379;47.190;27.558;2023-06-22T09:53:26;100176.59;;;30.73;36.92
78841;BME280;68379;47.190;27.558;2023-06-22T09:55:54;100177.61;;;30.92;36.70
78841;BME280;68379;47.190;27.558;2023-06-22T09:58:25;100177.55;;;31.00;36.81
78841;BME280;68379;47.190;27.558;2023-06-22T10:00:55;100179.16;;;31.03;36.89
78841;BME280;68379;47.190;27.558;2023-06-22T10:03:24;100179.10;;;31.10;37.32
78841;BME280;68379;47.190;27.558;2023-06-22T10:05:54;100178.85;;;31.45;36.73
78841;BME280;68379;47.190;27.558;2023-06-22T10:08:23;100173.52;;;31.59;35.37
78841;BME280;68379;47.190;27.558;2023-06-22T10:10:52;100169.13;;;31.78;35.77
78841;BME280;68379;47.190;27.558;2023-06-22T10:13:21;100168.88;;;31.72;34.15
78841;BME280;68379;47.190;27.558;2023-06-22T10:15:51;100166.45;;;31.75;35.43
78841;BME280;68379;47.190;27.558;2023-06-22T10:18:22;100165.20;;;32.07;35.62
78841;BME280;68379;47.190;27.558;2023-06-22T10:20:53;100167.63;;;32.46;34.01
78841;BME280;68379;47.190;27.558;2023-06-22T10:23:22;100163.58;;;32.78;33.67
78841;BME280;68379;47.190;27.558;2023-06-22T10:25:52;100162.41;;;32.90;32.08
78841;BME280;68379;47.190;27.558;2023-06-22T10:28:26;100159.00;;;32.91;32.18
78841;BME280;68379;47.190;27.558;2023-06-22T10:31:00;100156.95;;;32.98;32.50
78841;BME280;68379;47.190;27.558;2023-06-22T10:33:31;100154.17;;;33.08;32.57
78841;BME280;68379;47.190;27.558;2023-06-22T10:36:01;100153.85;;;33.08;32.16
78841;BME280;68379;47.190;27.558;2023-06-22T10:38:31;100150.86;;;33.17;33.14
78841;BME280;68379;47.190;27.558;2023-06-22T10:41:05;100147.60;;;33.28;32.67
78841;BME280;68379;47.190;27.558;2023-06-22T10:43:34;100147.80;;;33.33;32.53
78841;BME280;68379;47.190;27.558;2023-06-22T10:46:06;100142.83;;;33.07;32.56
78841;BME280;68379;47.190;27.558;2023-06-22T10:48:36;100139.18;;;32.95;32.87
78841;BME280;68379;47.190;27.558;2023-06-22T10:51:07;100133.35;;;33.15;32.60
78841;BME280;68379;47.190;27.558;2023-06-22T10:53:36;100132.00;;;33.34;32.37
78841;BME280;68379;47.190;27.558;2023-06-22T10:56:06;100129.67;;;33.38;32.55
78841;BME280;68379;47.190;27.558;2023-06-22T10:58:36;100129.85;;;33.54;32.29
78841;BME280;68379;47.190;27.558;2023-06-22T11:01:07;100124.94;;;33.70;32.60
78841;BME280;68379;47.190;27.558;2023-06-22T11:03:37;100123.90;;;33.92;32.07
78841;BME280;68379;47.190;27.558;2023-06-22T11:06:06;100124.88;;;33.96;31.28
78841;BME280;68379;47.190;27.558;2023-06-22T11:08:36;100126.96;;;34.08;31.78
78841;BME280;68379;47.190;27.558;2023-06-22T11:11:06;100124.90;;;34.23;30.98
78841;BME280;68379;47.190;27.558;2023-06-22T11:13:35;100122.94;;;34.35;31.39
78841;BME280;68379;47.190;27.558;2023-06-22T11:16:08;100117.22;;;34.17;30.38
78841;BME280;68379;47.190;27.558;2023-06-22T11:18:37;100116.80;;;33.66;30.93
78841;BME280;68379;47.190;27.558;2023-06-22T11:21:08;100117.31;;;33.38;31.10
78841;BME280;68379;47.190;27.558;2023-06-22T11:23:37;100111.89;;;33.29;30.99
78841;BME280;68379;47.190;27.558;2023-06-22T11:26:09;100108.27;;;33.44;31.61
78841;BME280;68379;47.190;27.558;2023-06-22T11:28:44;100101.41;;;33.50;31.72
78841;BME280;68379;47.190;27.558;2023-06-22T11:31:14;100103.27;;;33.63;30.67
78841;BME280;68379;47.190;27.558;2023-06-22T11:33:43;100104.01;;;33.67;30.65
78841;BME280;68379;47.190;27.558;2023-06-22T11:36:13;100099.17;;;34.00;30.54
78841;BME280;68379;47.190;27.558;2023-06-22T11:38:43;100097.10;;;34.29;29.98
78841;BME280;68379;47.190;27.558;2023-06-22T11:41:12;100092.05;;;34.46;30.11
78841;BME280;68379;47.190;27.558;2023-06-22T11:43:41;100092.50;;;34.47;29.05
78841;BME280;68379;47.190;27.558;2023-06-22T11:46:11;100087.64;;;34.43;29.65
78841;BME280;68379;47.190;27.558;2023-06-22T11:48:40;100092.05;;;34.58;29.58
78841;BME280;68379;47.190;27.558;2023-06-22T11:51:09;100091.98;;;34.80;29.48
78841;BME280;68379;47.190;27.558;2023-06-22T11:53:38;100085.92;;;34.91;28.69
78841;BME280;68379;47.190;27.558;2023-06-22T11:56:07;100081.36;;;34.84;29.49
78841;BME280;68379;47.190;27.558;2023-06-22T11:58:36;100075.77;;;35.00;29.39
78841;BME280;68379;47.190;27.558;2023-06-22T12:01:05;100074.48;;;35.07;28.70
78841;BME280;68379;47.190;27.558;2023-06-22T12:03:34;100072.48;;;35.06;28.20
78841;BME280;68379;47.190;27.558;2023-06-22T12:06:03;100068.39;;;34.95;27.92
78841;BME280;68379;47.190;27.558;2023-06-22T12:08:32;100060.98;;;34.84;28.04
78841;BME280;68379;47.190;27.558;2023-06-22T12:11:01;100063.30;;;34.48;28.49
78841;BME280;68379;47.190;27.558;2023-06-22T12:13:30;100062.55;;;34.00;29.31
78841;BME280;68379;47.190;27.558;2023-06-22T12:15:59;100058.21;;;33.58;30.04
78841;BME280;68379;47.190;27.558;2023-06-22T12:18:28;100054.38;;;33.73;30.17
78841;BME280;68379;47.190;27.558;2023-06-22T12:20:57;100049.06;;;34.34;29.49
78841;BME280;68379;47.190;27.558;2023-06-22T12:23:26;100051.98;;;34.96;28.92
78841;BME280;68379;47.190;27.558;2023-06-22T12:25:55;100049.73;;;35.48;28.41
78841;BME280;68379;47.190;27.558;2023-06-22T12:28:24;100050.56;;;35.83;27.33
78841;BME280;68379;47.190;27.558;2023-06-22T12:30:53;100045.15;;;35.57;27.36
78841;BME280;68379;47.190;27.558;2023-06-22T12:33:22;100043.60;;;35.82;27.67
78841;BME280;68379;47.190;27.558;2023-06-22T12:35:51;100047.53;;;36.10;27.25
78841;BME280;68379;47.190;27.558;2023-06-22T12:38:20;100046.52;;;36.44;26.68
78841;BME280;68379;47.190;27.558;2023-06-22T12:40:49;100039.33;;;36.73;25.57
78841;BME280;68379;47.190;27.558;2023-06-22T12:43:18;100037.96;;;36.84;25.19
78841;BME280;68379;47.190;27.558;2023-06-22T12:45:47;100037.39;;;36.75;25.56
78841;BME280;68379;47.190;27.558;2023-06-22T12:48:16;100034.30;;;36.59;27.08
78841;BME280;68379;47.190;27.558;2023-06-22T12:50:45;100036.88;;;36.60;25.96
78841;BME280;68379;47.190;27.558;2023-06-22T12:53:16;100033.96;;;36.76;25.79